首页
METAR-TAF:

METAR-TAF

机场 :

辛普森堡, 西北特區, 加拿大

纬度: 61-45N, 经度: 121-14W, 海拔: 168米

当前天气观测

该预报发布于39分钟前的20:00 UTC
风速4节,风向南转西南,在西转西南之间变化
温度 -19°C
湿度 49%
气压 1024 hPa
能見度: 24.1公里
天空无云

METAR: CYFS 282000Z 21004KT 170V250 15SM SKC M19/M27 A3025 RMK SLP268

时间: 14:39 (20:39 UTC)

预报

该预报发布于3小时和1分钟前的17:38 UTC
预报有效从28日的 18点(UTC)到 29日的 06点(UTC)
风速3节,风向多变
能見度: 10公里
少量云层高于21000英尺

TAF: CYFS 281738Z 2818/2906 VRB03KT P6SM FEW210 RMK NXT FCST BY 290000Z

超过4000个机场的气象观测和天气预报(METAR&TAF报告)。

可查询的气象台以黄色和红色小点在地图上表示。

将鼠标移到小点上方,可查看气象台名称。

然后点击查看天气观测和预报。

如需切换地图:点击带黑十字的绿色按钮放大地图;点击带横线的绿色按钮缩小地图;或者点击绿色箭头查看邻近地区的地图。


METAR-TAF: